ENMLENAL

Guest
Details From ENML - Molde Aro
To ENAL - Alesund lufthavn - Vigra
Flight Number -
Tags decoded
Created
Modified
Stats Distance 34 nm / 63 km
Max Altitude 0 ft / 0 m
Waypoints 2
Social Downloads 2
Likes 0
Share VATSIM

Download

Looking for another format? Having issues loading an existing format? Contact us
Advertisement - Login to hide

Notes

Requested: ENML ENAL

Route

ENML ENAL

ID Type Via Altitude Latitude Longitude Leg Dist Tot Dist Heading (true) Name
O ENML APT - 0 ft / 0 m 62.74557˚ 7.26748˚ - 0 nm - Molde Aro
O ENAL APT - 0 ft / 0 m 62.56037˚ 6.11017˚ 33 nm 33 nm 251° / 250° Alesund lufthavn - Vigra

Altitude Profile

Advertisement - Login to hide

ENML

Details ICAO ENML (MOL)
Name Molde Aro
Region Norway
Timezone Europe/Oslo (UTC+1.0)
Stats Elevation 10 ft / 3 m (AMSL)
Location 62.745572° 7.267482°
Runways 1
Magnetic Variation 1.717° E

METAR

ENML 181950Z 02007KT 9999 FEW020 BKN040 03/01 Q1019

Decode

TAF

Not found

Departure Runways

ID Width Length Bearing (true) Bearing (mag) Surface Threshold Offset Overrun Length
07 148 ft / 45 m 6,886 ft / 2,099 m 70.96° 69.24° Asphalt 230 ft / 70 m 0 ft / 0 m
25 148 ft / 45 m 6,886 ft / 2,099 m 251.00° 249.28° Asphalt 197 ft / 60 m 0 ft / 0 m

ENAL

Details ICAO ENAL (AES)
Name Alesund lufthavn - Vigra
Region Norway
Timezone Europe/Oslo (UTC+1.0)
Stats Elevation 69 ft / 21 m (AMSL)
Location 62.560371° 6.110165°
Runways 1
Magnetic Variation 1.164° E

METAR

ENAL 181950Z 19007KT 9999 FEW033 BKN047 06/02 Q1018

Decode

TAF

Not found

Destination Runways

ID Width Length Bearing (true) Bearing (mag) Surface Threshold Offset Overrun Length
07 148 ft / 45 m 7,563 ft / 2,305 m 64.61° 63.45° Asphalt 492 ft / 150 m 0 ft / 0 m
25 148 ft / 45 m 7,563 ft / 2,305 m 244.65° 243.49° Asphalt 758 ft / 231 m 0 ft / 0 m

Approach Navaids

Runway Type Ident Frequency Range Bearing (true) Bearing (mag) Slope Elevation
25 Localiser VGR 111.95 MHz 18 nm / 33 km 244.61° 243.45° - 72 ft / 22 m (AMSL)
25 Glidescope VGR 111.95 MHz 10 nm / 19 km 244.61° 243.45° 3.00° 18 ft / 5 m (AMSL)

Popular Alternatives